Terminal Aerodrome Forecast
Issued by NWS Denver/Boulder, CO

Home | Current Version | Previous Version | Text Only | Print | Product List | Glossary On
Versions: 1 2 3 4 5 6 7 8 9 10 11 12 13 14 15 16 17 18 19 20 21 22 23 24 25 26 27 28 29 30 31 32 33 34 35 36 37 38 39 40 41 42 43 44 45 46 47 48 49
000
FTUS45 KBOU 200911 AAB
TAFDEN
TAF AMD
KDEN 200911Z 2009/2112 06009KT P6SM SCT003 OVC008
      TEMPO 2009/2011 1SM -DZ BR OVC003
     FM201100 11006KT P6SM SCT006 OVC012
     FM201400 14007KT P6SM SCT012 BKN025
     FM201600 13008KT P6SM SCT025 BKN040
     FM202000 10010KT P6SM SCT040 BKN070
     FM202300 13010KT P6SM SCT070 BKN140
     FM210300 21009KT P6SM FEW070 BKN150=

USA.gov is the U.S. government's official web portal to all federal, state and local government web resources and services.